createdAt,value
2023-04-27T00:00:11.892Z,11.90
2023-04-27T00:02:39.999Z,11.90
2023-04-27T00:05:08.753Z,11.90
2023-04-27T00:07:37.062Z,11.80
2023-04-27T00:10:05.348Z,11.80
2023-04-27T00:12:33.499Z,11.70
2023-04-27T00:15:03.146Z,11.60
2023-04-27T00:17:31.206Z,11.70
2023-04-27T00:20:00.652Z,11.60
2023-04-27T00:22:28.773Z,11.60
2023-04-27T00:24:56.726Z,11.60
2023-04-27T00:27:24.709Z,11.50
2023-04-27T00:29:52.702Z,11.50
2023-04-27T00:32:22.085Z,11.60
2023-04-27T00:34:50.144Z,11.50
2023-04-27T00:37:18.713Z,11.60
2023-04-27T00:39:46.818Z,11.60
2023-04-27T00:42:17.390Z,11.60
2023-04-27T00:44:45.348Z,11.50
2023-04-27T00:47:13.447Z,11.50
2023-04-27T00:49:42.854Z,11.50
2023-04-27T00:52:11.237Z,11.50
2023-04-27T00:54:42.134Z,11.50
2023-04-27T00:57:10.466Z,11.50
2023-04-27T00:59:38.430Z,11.50
2023-04-27T01:02:06.544Z,11.50
2023-04-27T01:04:34.589Z,11.50
2023-04-27T01:07:04.055Z,11.50
2023-04-27T01:09:32.051Z,11.50
2023-04-27T01:12:00.042Z,11.40
2023-04-27T01:14:30.076Z,11.40
2023-04-27T01:16:58.387Z,11.30
2023-04-27T01:19:26.746Z,11.30
2023-04-27T01:21:54.765Z,11.50
2023-04-27T01:24:24.108Z,11.50
2023-04-27T01:26:53.980Z,11.50
2023-04-27T01:29:22.449Z,11.50
2023-04-27T01:31:50.467Z,11.60
2023-04-27T01:34:18.470Z,11.60
2023-04-27T01:36:46.470Z,11.60
2023-04-27T01:39:14.702Z,11.60
2023-04-27T01:41:44.292Z,11.60
2023-04-27T01:44:12.446Z,11.60
2023-04-27T01:46:41.389Z,11.50
2023-04-27T01:49:09.705Z,11.50
2023-04-27T01:51:37.666Z,11.50
2023-04-27T01:54:06.536Z,11.40
2023-04-27T01:56:34.488Z,11.40
2023-04-27T01:59:05.343Z,11.40
2023-04-27T02:01:33.464Z,11.40
2023-04-27T02:04:01.636Z,11.40
2023-04-27T02:06:29.734Z,11.40
2023-04-27T02:08:57.756Z,11.30
2023-04-27T02:11:26.557Z,11.30
2023-04-27T02:13:54.552Z,11.10
2023-04-27T02:16:23.878Z,11.20
2023-04-27T02:18:54.638Z,11.30
2023-04-27T02:21:22.900Z,11.30
2023-04-27T02:23:50.844Z,11.20
2023-04-27T02:26:19.480Z,11.10
2023-04-27T02:28:48.052Z,11.10
2023-04-27T02:31:16.709Z,11.10
2023-04-27T02:33:46.094Z,11.10
2023-04-27T02:36:14.231Z,11.10
2023-04-27T02:38:42.188Z,11.10
2023-04-27T02:41:10.136Z,11.00
2023-04-27T02:43:38.108Z,11.00
2023-04-27T02:46:06.499Z,11.00
2023-04-27T02:48:34.650Z,11.00
2023-04-27T02:51:06.253Z,11.00
2023-04-27T02:53:34.274Z,11.00
2023-04-27T02:56:04.306Z,11.00
2023-04-27T02:58:32.271Z,11.00
2023-04-27T03:01:02.322Z,11.10
2023-04-27T03:03:30.715Z,11.10
2023-04-27T03:05:58.861Z,11.10
2023-04-27T03:08:28.260Z,11.10
2023-04-27T03:10:56.217Z,11.00
2023-04-27T03:13:24.240Z,11.00
2023-04-27T03:15:52.192Z,11.10
2023-04-27T03:18:20.456Z,11.10
2023-04-27T03:20:48.424Z,11.10
2023-04-27T03:23:16.402Z,11.10
2023-04-27T03:25:45.787Z,11.10
2023-04-27T03:28:13.729Z,11.00
2023-04-27T03:30:42.734Z,11.10
2023-04-27T03:33:10.687Z,11.10
2023-04-27T03:35:38.648Z,11.00
2023-04-27T03:38:06.596Z,11.00
2023-04-27T03:40:34.548Z,11.00
2023-04-27T03:43:03.876Z,11.00
2023-04-27T03:45:31.846Z,11.00
2023-04-27T03:47:59.871Z,11.10
2023-04-27T03:50:30.070Z,11.10
2023-04-27T03:52:58.268Z,11.00
2023-04-27T03:55:26.905Z,11.10
2023-04-27T03:57:55.087Z,11.00
2023-04-27T04:00:25.524Z,10.90
2023-04-27T04:02:53.681Z,10.90
2023-04-27T04:05:21.901Z,11.00
2023-04-27T04:07:49.900Z,11.00
2023-04-27T04:10:17.988Z,11.00
2023-04-27T04:12:45.982Z,10.90
2023-04-27T04:15:14.039Z,10.90
2023-04-27T04:17:43.444Z,10.90
2023-04-27T04:20:12.842Z,10.90
2023-04-27T04:22:40.891Z,10.90
2023-04-27T04:25:09.468Z,10.90
2023-04-27T04:27:37.673Z,11.00
2023-04-27T04:30:07.213Z,11.00
2023-04-27T04:32:37.864Z,11.00
2023-04-27T04:35:07.973Z,11.00
2023-04-27T04:37:36.568Z,11.00
2023-04-27T04:40:10.795Z,11.10
2023-04-27T04:42:38.989Z,11.10
2023-04-27T04:45:08.093Z,11.10
2023-04-27T04:47:36.849Z,10.90
2023-04-27T04:50:05.378Z,11.00
2023-04-27T04:52:34.817Z,11.00
2023-04-27T04:55:02.949Z,11.00
2023-04-27T04:57:31.620Z,11.00
2023-04-27T04:59:59.661Z,10.70
2023-04-27T05:02:27.675Z,10.70
2023-04-27T05:04:57.106Z,10.80
2023-04-27T05:07:25.272Z,11.00
2023-04-27T05:09:54.754Z,11.00
2023-04-27T05:12:22.879Z,11.00
2023-04-27T05:14:51.975Z,10.80
2023-04-27T05:17:20.030Z,10.70
2023-04-27T05:19:48.236Z,10.60
2023-04-27T05:22:16.191Z,10.60
2023-04-27T05:24:44.239Z,10.80
2023-04-27T05:27:14.029Z,11.00
2023-04-27T05:29:42.250Z,11.00
2023-04-27T05:32:10.718Z,11.10
2023-04-27T05:34:38.735Z,11.20
2023-04-27T05:37:07.410Z,11.10
2023-04-27T05:39:35.399Z,11.10
2023-04-27T05:42:03.784Z,11.00
2023-04-27T05:44:33.179Z,10.90
2023-04-27T05:47:01.430Z,10.80
2023-04-27T05:49:29.374Z,10.80
2023-04-27T05:51:59.069Z,11.00
2023-04-27T05:54:27.603Z,11.00
2023-04-27T05:56:55.762Z,11.20
2023-04-27T05:59:23.739Z,11.30
2023-04-27T06:01:53.091Z,11.40
2023-04-27T06:04:21.340Z,11.30
2023-04-27T06:06:49.392Z,11.40
2023-04-27T06:09:17.339Z,11.40
2023-04-27T06:11:47.034Z,11.50
2023-04-27T06:14:15.035Z,11.50
2023-04-27T06:16:43.081Z,11.50
2023-04-27T06:19:12.697Z,11.60
2023-04-27T06:21:40.895Z,11.60
2023-04-27T06:24:09.045Z,11.70
2023-04-27T06:26:37.032Z,11.70
2023-04-27T06:29:07.715Z,11.70
2023-04-27T06:31:35.807Z,11.70
2023-04-27T06:34:04.501Z,11.80
2023-04-27T06:36:33.854Z,11.90
2023-04-27T06:39:01.864Z,12.00
2023-04-27T06:41:29.849Z,12.00
2023-04-27T06:43:59.070Z,12.00
2023-04-27T06:46:27.611Z,12.00
2023-04-27T06:48:55.653Z,12.10
2023-04-27T06:51:23.599Z,12.10
2023-04-27T06:53:54.978Z,12.20
2023-04-27T06:56:22.951Z,12.20
2023-04-27T06:58:50.907Z,12.20
2023-04-27T07:01:18.863Z,12.20
2023-04-27T07:03:47.014Z,12.20
2023-04-27T07:06:15.132Z,12.20
2023-04-27T07:08:43.787Z,12.30
2023-04-27T07:11:13.579Z,12.30
2023-04-27T07:13:41.940Z,12.40
2023-04-27T07:16:10.115Z,12.40
2023-04-27T07:18:38.200Z,12.50
2023-04-27T07:21:06.707Z,12.60
2023-04-27T07:23:34.691Z,12.60
2023-04-27T07:26:02.800Z,12.70
2023-04-27T07:28:32.548Z,12.80
2023-04-27T07:31:00.553Z,12.80
2023-04-27T07:33:28.844Z,12.90
2023-04-27T07:35:56.859Z,12.90
2023-04-27T07:38:25.517Z,13.00
2023-04-27T07:40:54.572Z,13.00
2023-04-27T07:43:23.792Z,13.00
2023-04-27T07:45:54.623Z,13.00
2023-04-27T07:48:23.036Z,13.00
2023-04-27T07:50:51.095Z,13.10
2023-04-27T07:53:19.093Z,13.10
2023-04-27T07:55:47.071Z,13.10
2023-04-27T07:58:15.082Z,13.20
2023-04-27T08:00:43.167Z,13.20
2023-04-27T08:03:12.897Z,13.20
2023-04-27T08:05:42.044Z,13.30
2023-04-27T08:08:10.451Z,13.40
2023-04-27T08:10:38.441Z,13.50
2023-04-27T08:13:11.778Z,13.50
2023-04-27T08:15:40.054Z,13.60
2023-04-27T08:18:08.090Z,13.60
2023-04-27T08:20:37.485Z,13.70
2023-04-27T08:23:05.440Z,13.70
2023-04-27T08:25:33.784Z,13.60
2023-04-27T08:28:01.697Z,13.70
2023-04-27T08:30:29.727Z,13.70
2023-04-27T08:32:57.740Z,13.70
2023-04-27T08:35:25.954Z,13.70
2023-04-27T08:37:55.309Z,13.80
2023-04-27T08:40:24.917Z,13.90
2023-04-27T08:42:57.244Z,13.90
2023-04-27T08:45:26.854Z,14.00
2023-04-27T08:47:55.662Z,14.10
2023-04-27T08:50:24.418Z,14.20
2023-04-27T08:52:53.060Z,14.20
2023-04-27T08:55:23.655Z,14.30
2023-04-27T08:57:58.794Z,14.40
2023-04-27T09:00:38.703Z,14.40
2023-04-27T09:03:06.969Z,14.50
2023-04-27T09:05:35.396Z,14.50
2023-04-27T09:08:07.838Z,14.60
2023-04-27T09:10:55.368Z,14.70
2023-04-27T09:13:23.450Z,14.70
2023-04-27T09:15:52.756Z,14.80
2023-04-27T09:18:22.240Z,14.80
2023-04-27T09:20:52.802Z,14.90
2023-04-27T09:23:27.914Z,14.90
2023-04-27T09:25:57.851Z,15.00
2023-04-27T09:28:27.567Z,15.10
2023-04-27T09:30:56.813Z,15.10
2023-04-27T09:33:25.456Z,15.20
2023-04-27T09:35:53.901Z,15.20
2023-04-27T09:38:23.117Z,15.30
2023-04-27T09:40:52.658Z,15.30
2023-04-27T09:43:22.065Z,15.40
2023-04-27T09:45:50.925Z,15.50
2023-04-27T09:48:19.430Z,15.60
2023-04-27T09:50:48.086Z,15.50
2023-04-27T09:53:18.112Z,15.50
2023-04-27T09:55:54.236Z,15.60
2023-04-27T09:58:59.836Z,15.80
2023-04-27T10:01:37.390Z,15.80
2023-04-27T10:04:22.339Z,15.80
2023-04-27T10:07:01.987Z,15.80
2023-04-27T10:09:36.211Z,15.80
2023-04-27T10:12:16.525Z,15.90
2023-04-27T10:14:56.625Z,15.90
2023-04-27T10:17:31.587Z,15.90
2023-04-27T10:20:00.993Z,15.90
2023-04-27T10:22:42.141Z,16.00
2023-04-27T10:25:19.737Z,16.10
2023-04-27T10:27:52.742Z,16.20
2023-04-27T10:30:24.129Z,16.30
2023-04-27T10:32:53.415Z,16.30
2023-04-27T10:35:22.675Z,16.40
2023-04-27T10:37:52.136Z,16.50
2023-04-27T10:40:20.158Z,16.50
2023-04-27T10:42:49.737Z,16.60
2023-04-27T10:45:31.520Z,16.70
2023-04-27T10:48:01.890Z,16.70
2023-04-27T10:50:29.988Z,16.70
2023-04-27T10:53:02.580Z,16.90
2023-04-27T10:55:31.745Z,16.90
2023-04-27T10:58:00.310Z,16.90
2023-04-27T11:00:31.584Z,17.00
2023-04-27T11:03:18.529Z,17.00
2023-04-27T11:05:48.200Z,17.00
2023-04-27T11:08:17.943Z,17.00
2023-04-27T11:10:50.045Z,17.00
2023-04-27T11:13:19.861Z,17.00
2023-04-27T11:15:50.925Z,17.00
2023-04-27T11:18:20.836Z,17.00
2023-04-27T11:20:50.559Z,17.10
2023-04-27T11:23:26.195Z,17.10
2023-04-27T11:25:54.732Z,17.10
2023-04-27T11:28:23.063Z,17.20
2023-04-27T11:30:58.645Z,17.20
2023-04-27T11:33:27.063Z,17.30
2023-04-27T11:35:56.472Z,17.30
2023-04-27T11:38:24.966Z,17.40
2023-04-27T11:41:06.369Z,17.40
2023-04-27T11:43:35.219Z,17.40
2023-04-27T11:46:07.034Z,17.50
2023-04-27T11:48:38.386Z,17.50
2023-04-27T11:51:06.825Z,17.50
2023-04-27T11:53:36.505Z,17.60
2023-04-27T11:56:06.281Z,17.60
2023-04-27T11:58:36.168Z,17.70
2023-04-27T12:01:06.170Z,17.70
2023-04-27T12:03:35.043Z,17.70
2023-04-27T12:06:16.587Z,17.80
2023-04-27T12:08:49.923Z,17.80
2023-04-27T12:11:17.990Z,17.90
2023-04-27T12:13:47.263Z,17.90
2023-04-27T12:16:16.603Z,17.90
2023-04-27T12:18:44.544Z,18.00
2023-04-27T12:21:13.095Z,18.00
2023-04-27T12:23:41.032Z,18.10
2023-04-27T12:26:09.073Z,18.20
2023-04-27T12:28:37.219Z,18.20
2023-04-27T12:31:06.699Z,18.20
2023-04-27T12:33:36.204Z,18.30
2023-04-27T12:36:04.337Z,18.30
2023-04-27T12:38:32.800Z,18.40
2023-04-27T12:41:03.289Z,18.40
2023-04-27T12:43:31.231Z,18.50
2023-04-27T12:45:59.211Z,18.60
2023-04-27T12:48:27.318Z,18.60
2023-04-27T12:50:57.820Z,18.70
2023-04-27T12:53:25.845Z,18.80
2023-04-27T12:55:54.274Z,18.80
2023-04-27T12:58:22.228Z,18.80
2023-04-27T13:00:50.192Z,18.80
2023-04-27T13:03:18.233Z,18.80
2023-04-27T13:05:46.384Z,18.90
2023-04-27T13:08:15.696Z,18.90
2023-04-27T13:10:43.656Z,18.90
2023-04-27T13:13:11.633Z,19.00
2023-04-27T13:15:39.781Z,19.10
2023-04-27T13:18:07.945Z,19.10
2023-04-27T13:20:36.390Z,19.20
2023-04-27T13:23:05.971Z,19.20
2023-04-27T13:25:35.418Z,19.30
2023-04-27T13:28:03.442Z,19.30
2023-04-27T13:30:32.087Z,19.30
2023-04-27T13:33:14.189Z,19.30
2023-04-27T13:35:48.148Z,19.30
2023-04-27T13:38:16.104Z,19.30
2023-04-27T13:40:45.487Z,19.30
2023-04-27T13:43:13.436Z,19.30
2023-04-27T13:45:42.625Z,19.30
2023-04-27T13:48:10.687Z,19.40
2023-04-27T13:50:38.892Z,19.50
2023-04-27T13:53:06.962Z,19.50
2023-04-27T13:55:35.327Z,19.50
2023-04-27T13:58:04.833Z,19.50
2023-04-27T14:00:34.738Z,19.50
2023-04-27T14:03:04.592Z,19.50
2023-04-27T14:05:33.002Z,19.50
2023-04-27T14:08:01.198Z,19.50
2023-04-27T14:10:29.264Z,19.50
2023-04-27T14:12:58.418Z,19.60
2023-04-27T14:15:28.945Z,19.60
2023-04-27T14:17:56.919Z,19.70
2023-04-27T14:20:25.111Z,19.80
2023-04-27T14:22:53.099Z,19.90
2023-04-27T14:25:21.049Z,20.00
2023-04-27T14:27:48.987Z,20.20
2023-04-27T14:30:17.167Z,20.40
2023-04-27T14:32:46.531Z,21.10
2023-04-27T14:35:14.504Z,21.80
2023-04-27T14:37:42.489Z,22.50
2023-04-27T14:40:11.485Z,23.30
2023-04-27T14:42:39.516Z,23.90
2023-04-27T14:45:08.646Z,24.40
2023-04-27T14:47:36.642Z,24.60
2023-04-27T14:50:09.107Z,24.30
2023-04-27T14:52:37.094Z,23.60
2023-04-27T14:55:05.478Z,23.10
2023-04-27T14:57:33.675Z,22.80
2023-04-27T15:00:01.727Z,22.40
2023-04-27T15:02:31.205Z,22.30
2023-04-27T15:05:01.262Z,22.60
2023-04-27T15:07:30.659Z,23.40
2023-04-27T15:09:58.612Z,24.20
2023-04-27T15:12:26.569Z,24.90
2023-04-27T15:14:54.585Z,25.40
2023-04-27T15:17:22.581Z,25.50
2023-04-27T15:19:51.715Z,25.10
2023-04-27T15:22:19.760Z,24.40
2023-04-27T15:24:49.089Z,23.40
2023-04-27T15:27:17.081Z,22.80
2023-04-27T15:29:45.096Z,22.30
2023-04-27T15:32:13.080Z,21.90
2023-04-27T15:34:42.668Z,21.50
2023-04-27T15:37:10.729Z,21.20
2023-04-27T15:39:38.754Z,20.90
2023-04-27T15:42:08.106Z,20.80
2023-04-27T15:44:36.402Z,20.70
2023-04-27T15:47:04.651Z,20.60
2023-04-27T15:49:39.852Z,20.50
2023-04-27T15:52:14.124Z,20.40
2023-04-27T15:54:42.373Z,20.30
2023-04-27T15:57:11.789Z,20.20
2023-04-27T15:59:39.909Z,20.00
2023-04-27T16:02:08.755Z,19.80
2023-04-27T16:04:36.827Z,19.70
2023-04-27T16:07:06.765Z,19.50
2023-04-27T16:09:35.101Z,19.40
2023-04-27T16:12:03.846Z,19.40
2023-04-27T16:14:33.335Z,19.30
2023-04-27T16:17:04.253Z,19.20
2023-04-27T16:19:32.257Z,19.10
2023-04-27T16:22:01.288Z,18.90
2023-04-27T16:24:31.732Z,18.90
2023-04-27T16:26:59.703Z,18.90
2023-04-27T16:29:27.740Z,18.70
2023-04-27T16:31:57.082Z,18.70
2023-04-27T16:34:25.163Z,18.70
2023-04-27T16:36:53.176Z,18.60
2023-04-27T16:39:21.188Z,18.50
2023-04-27T16:41:49.603Z,18.50
2023-04-27T16:44:17.593Z,18.40
2023-04-27T16:46:45.747Z,18.40
2023-04-27T16:49:15.321Z,18.40
2023-04-27T16:51:43.480Z,18.40
2023-04-27T16:54:12.714Z,18.30
2023-04-27T16:56:40.820Z,18.30
2023-04-27T16:59:12.147Z,18.20
2023-04-27T17:01:40.767Z,18.20
2023-04-27T17:04:08.888Z,18.10
2023-04-27T17:06:38.531Z,18.10
2023-04-27T17:09:06.779Z,18.10
2023-04-27T17:11:34.815Z,18.00
2023-04-27T17:14:02.763Z,18.10
2023-04-27T17:16:30.855Z,18.10
2023-04-27T17:18:58.850Z,18.00
2023-04-27T17:21:27.509Z,18.00
2023-04-27T17:23:56.900Z,18.00
2023-04-27T17:26:24.927Z,18.00
2023-04-27T17:28:53.071Z,18.00
2023-04-27T17:31:21.133Z,18.00
2023-04-27T17:33:49.122Z,18.10
2023-04-27T17:36:17.070Z,18.00
2023-04-27T17:38:45.076Z,18.00
2023-04-27T17:41:14.411Z,18.00
2023-04-27T17:43:42.488Z,17.90
2023-04-27T17:46:10.513Z,17.90
2023-04-27T17:48:38.874Z,17.80
2023-04-27T17:51:08.562Z,17.80
2023-04-27T17:53:36.573Z,17.70
2023-04-27T17:56:05.340Z,17.70
2023-04-27T17:58:34.832Z,17.60
2023-04-27T18:01:02.846Z,17.50
2023-04-27T18:03:31.417Z,17.50
2023-04-27T18:05:59.588Z,17.50
2023-04-27T18:08:27.649Z,17.40
2023-04-27T18:10:55.699Z,17.40
2023-04-27T18:13:23.773Z,17.30
2023-04-27T18:15:53.064Z,17.30
2023-04-27T18:18:25.374Z,17.30
2023-04-27T18:20:53.564Z,17.20
2023-04-27T18:23:21.588Z,17.20
2023-04-27T18:25:49.668Z,17.20
2023-04-27T18:28:17.699Z,17.10
2023-04-27T18:30:45.779Z,17.20
2023-04-27T18:33:17.780Z,17.10
2023-04-27T18:35:45.776Z,17.10
2023-04-27T18:38:13.741Z,17.00
2023-04-27T18:40:41.737Z,17.10
2023-04-27T18:43:10.027Z,17.10
2023-04-27T18:45:38.011Z,17.00
2023-04-27T18:48:06.310Z,17.00
2023-04-27T18:50:35.938Z,16.80
2023-04-27T18:53:03.914Z,16.80
2023-04-27T18:55:31.895Z,16.80
2023-04-27T18:57:59.907Z,16.80
2023-04-27T19:00:30.798Z,16.70
2023-04-27T19:02:58.866Z,16.60
2023-04-27T19:05:26.980Z,16.60
2023-04-27T19:07:56.391Z,16.50
2023-04-27T19:10:24.524Z,16.50
2023-04-27T19:12:53.085Z,16.50
2023-04-27T19:15:21.239Z,16.50
2023-04-27T19:17:58.500Z,16.50
2023-04-27T19:20:34.736Z,16.40
2023-04-27T19:23:05.183Z,16.40
2023-04-27T19:25:33.196Z,16.40
2023-04-27T19:28:01.478Z,16.30
2023-04-27T19:30:29.476Z,16.30
2023-04-27T19:32:57.551Z,16.30
2023-04-27T19:35:27.590Z,16.30
2023-04-27T19:37:56.021Z,16.30
2023-04-27T19:40:25.606Z,16.30
2023-04-27T19:42:53.553Z,16.20
2023-04-27T19:45:22.341Z,16.20
2023-04-27T19:47:50.533Z,16.20
2023-04-27T19:50:18.930Z,16.00
2023-04-27T19:52:47.048Z,16.00
2023-04-27T19:55:15.149Z,15.90
2023-04-27T19:57:45.206Z,15.90
2023-04-27T20:00:14.232Z,15.80
2023-04-27T20:02:42.392Z,15.80
2023-04-27T20:05:10.944Z,15.80
2023-04-27T20:07:39.034Z,15.80
2023-04-27T20:10:08.014Z,15.60
2023-04-27T20:15:09.869Z,15.60
2023-04-27T20:17:38.012Z,15.40
2023-04-27T20:20:10.102Z,15.40
2023-04-27T20:22:38.192Z,15.50
2023-04-27T20:25:07.955Z,15.60
2023-04-27T20:27:36.052Z,15.60
2023-04-27T20:30:04.654Z,15.50
2023-04-27T20:32:34.014Z,15.50
2023-04-27T20:35:02.616Z,15.50
2023-04-27T20:37:32.157Z,15.50
2023-04-27T20:40:00.905Z,15.40
2023-04-27T20:42:29.605Z,15.40
2023-04-27T20:44:57.642Z,15.40
2023-04-27T20:47:25.864Z,15.30
2023-04-27T20:49:55.216Z,15.30
2023-04-27T20:52:23.259Z,15.30
2023-04-27T20:54:51.826Z,15.30
2023-04-27T20:57:19.849Z,15.10
2023-04-27T20:59:47.853Z,15.10
2023-04-27T21:02:16.388Z,15.00
2023-04-27T21:04:44.459Z,14.80
2023-04-27T21:07:13.811Z,14.90
2023-04-27T21:09:41.780Z,14.80
2023-04-27T21:12:09.939Z,14.90
2023-04-27T21:14:37.911Z,14.90
2023-04-27T21:17:06.018Z,14.90
2023-04-27T21:19:34.117Z,14.80
2023-04-27T21:22:02.131Z,14.70
2023-04-27T21:24:31.459Z,14.70
2023-04-27T21:26:59.560Z,14.70
2023-04-27T21:29:27.994Z,14.70
2023-04-27T21:31:55.987Z,14.70
2023-04-27T21:34:23.961Z,14.60
2023-04-27T21:36:52.062Z,14.60
2023-04-27T21:39:20.034Z,14.60
2023-04-27T21:41:49.357Z,14.60
2023-04-27T21:44:17.421Z,14.50
2023-04-27T21:46:45.924Z,14.30
2023-04-27T21:49:13.944Z,14.30
2023-04-27T21:51:41.925Z,14.30
2023-04-27T21:54:10.489Z,14.30
2023-04-27T21:56:38.719Z,14.40
2023-04-27T21:59:08.149Z,14.40
2023-04-27T22:01:37.881Z,14.40
2023-04-27T22:04:06.452Z,14.40
2023-04-27T22:06:34.570Z,14.30
2023-04-27T22:09:03.030Z,14.30
2023-04-27T22:11:31.461Z,14.20
2023-04-27T22:13:59.404Z,14.20
2023-04-27T22:16:30.319Z,14.20
2023-04-27T22:18:58.507Z,14.20
2023-04-27T22:21:27.342Z,14.20
2023-04-27T22:23:55.871Z,14.20
2023-04-27T22:26:23.910Z,14.10
2023-04-27T22:28:52.275Z,14.10
2023-04-27T22:31:20.486Z,14.10
2023-04-27T22:33:49.893Z,14.10
2023-04-27T22:36:18.077Z,14.10
2023-04-27T22:38:46.260Z,14.00
2023-04-27T22:41:14.231Z,14.00
2023-04-27T22:43:42.200Z,14.00
2023-04-27T22:46:10.262Z,14.00
2023-04-27T22:48:38.241Z,14.00
2023-04-27T22:51:10.841Z,14.00
2023-04-27T22:53:38.904Z,14.00
2023-04-27T22:56:07.757Z,14.00
2023-04-27T22:58:36.647Z,14.00
2023-04-27T23:01:05.149Z,14.00
2023-04-27T23:03:33.534Z,14.00
2023-04-27T23:06:01.837Z,14.00
2023-04-27T23:08:31.250Z,13.90
2023-04-27T23:10:59.193Z,13.90
2023-04-27T23:13:27.718Z,13.80
2023-04-27T23:15:55.914Z,13.80
2023-04-27T23:18:23.877Z,13.80
2023-04-27T23:20:54.978Z,13.80
2023-04-27T23:23:30.180Z,13.80
2023-04-27T23:25:59.490Z,13.80
2023-04-27T23:28:27.484Z,13.80
2023-04-27T23:30:55.682Z,13.80
2023-04-27T23:33:24.430Z,13.80
2023-04-27T23:35:53.072Z,13.80
2023-04-27T23:38:22.044Z,13.70
2023-04-27T23:40:50.130Z,13.70
2023-04-27T23:43:19.471Z,13.60
2023-04-27T23:45:50.696Z,13.60
2023-04-27T23:48:18.698Z,13.60
2023-04-27T23:50:46.866Z,13.50
2023-04-27T23:53:14.834Z,13.50
2023-04-27T23:55:42.808Z,13.50
2023-04-27T23:58:10.770Z,13.50
